Faulkner, Iowa
Current Conditions -  °F | °C
As of 1:55 PM on Sunday 23 Nov 2014 (Local Time) from KIFA Reporting Station
Haze Haze  
Wind Chill: 50°   Ceiling: 200
Heat Index: 50°   Visibility: 0.75mi
Dew Point: 49°   Wind: 7mph
Humidity: 97%   Direction: 150°SSE
Pressure: 29.37"   Gusts: NA
Location:  42.5577°N, 93.0852°W
Report Text: KIFA 231955Z AUTO 15006KT 3/4SM BR OVC002 10/10 A2937 RMK AO2 T01020097
Loading
Personal Weather Stations






























Interactive Weather Map New forecast layout! Learn more

10-Day Weather Forecast

Advertisements
Track Severe Weather on mobile